sensor_id;sensor_type;location;lat;lon;timestamp;P1;durP1;ratioP1;P2;durP2;ratioP2
12556;SDS011;6344;49.932;8.308;2023-03-26T00:00:48;5.20;;;2.53;;
12556;SDS011;6344;49.932;8.308;2023-03-26T00:03:18;3.27;;;2.20;;
12556;SDS011;6344;49.932;8.308;2023-03-26T00:05:47;6.77;;;2.03;;
12556;SDS011;6344;49.932;8.308;2023-03-26T00:08:15;5.67;;;2.10;;
12556;SDS011;6344;49.932;8.308;2023-03-26T00:10:42;8.20;;;2.60;;
12556;SDS011;6344;49.932;8.308;2023-03-26T00:13:09;5.30;;;2.83;;
12556;SDS011;6344;49.932;8.308;2023-03-26T00:15:36;7.50;;;4.23;;
12556;SDS011;6344;49.932;8.308;2023-03-26T00:18:04;4.87;;;2.30;;
12556;SDS011;6344;49.932;8.308;2023-03-26T00:20:33;5.13;;;2.50;;
12556;SDS011;6344;49.932;8.308;2023-03-26T00:23:01;3.93;;;2.10;;
12556;SDS011;6344;49.932;8.308;2023-03-26T00:25:27;5.83;;;2.20;;
12556;SDS011;6344;49.932;8.308;2023-03-26T00:27:55;6.37;;;2.60;;
12556;SDS011;6344;49.932;8.308;2023-03-26T00:30:22;3.10;;;2.13;;
12556;SDS011;6344;49.932;8.308;2023-03-26T00:32:49;9.03;;;2.17;;
12556;SDS011;6344;49.932;8.308;2023-03-26T00:35:16;7.33;;;3.40;;
12556;SDS011;6344;49.932;8.308;2023-03-26T00:37:42;5.83;;;2.10;;
12556;SDS011;6344;49.932;8.308;2023-03-26T00:40:11;7.63;;;2.40;;
12556;SDS011;6344;49.932;8.308;2023-03-26T00:42:38;6.53;;;2.20;;
12556;SDS011;6344;49.932;8.308;2023-03-26T00:45:06;4.30;;;2.30;;
12556;SDS011;6344;49.932;8.308;2023-03-26T00:47:34;4.93;;;2.20;;
12556;SDS011;6344;49.932;8.308;2023-03-26T00:50:01;4.00;;;2.10;;
12556;SDS011;6344;49.932;8.308;2023-03-26T00:52:28;7.97;;;2.70;;
12556;SDS011;6344;49.932;8.308;2023-03-26T00:54:56;7.97;;;3.07;;
12556;SDS011;6344;49.932;8.308;2023-03-26T00:57:24;6.10;;;2.67;;
12556;SDS011;6344;49.932;8.308;2023-03-26T00:59:53;6.10;;;2.97;;
12556;SDS011;6344;49.932;8.308;2023-03-26T01:02:20;10.30;;;2.93;;
12556;SDS011;6344;49.932;8.308;2023-03-26T01:04:50;4.07;;;2.53;;
12556;SDS011;6344;49.932;8.308;2023-03-26T01:07:20;5.30;;;2.60;;
12556;SDS011;6344;49.932;8.308;2023-03-26T01:09:53;2.50;;;2.00;;
12556;SDS011;6344;49.932;8.308;2023-03-26T01:12:21;5.00;;;2.70;;
12556;SDS011;6344;49.932;8.308;2023-03-26T01:14:52;3.30;;;2.10;;
12556;SDS011;6344;49.932;8.308;2023-03-26T01:17:21;5.87;;;2.70;;
12556;SDS011;6344;49.932;8.308;2023-03-26T01:19:50;11.60;;;2.50;;
12556;SDS011;6344;49.932;8.308;2023-03-26T01:22:23;9.40;;;3.03;;
12556;SDS011;6344;49.932;8.308;2023-03-26T01:24:52;4.50;;;1.80;;
12556;SDS011;6344;49.932;8.308;2023-03-26T01:27:26;4.60;;;2.50;;
12556;SDS011;6344;49.932;8.308;2023-03-26T01:29:58;6.93;;;2.80;;
12556;SDS011;6344;49.932;8.308;2023-03-26T01:32:35;5.70;;;3.33;;
12556;SDS011;6344;49.932;8.308;2023-03-26T01:35:13;8.50;;;3.43;;
12556;SDS011;6344;49.932;8.308;2023-03-26T01:37:51;5.00;;;3.23;;
12556;SDS011;6344;49.932;8.308;2023-03-26T01:40:27;7.23;;;3.13;;
12556;SDS011;6344;49.932;8.308;2023-03-26T01:43:07;8.30;;;3.40;;
12556;SDS011;6344;49.932;8.308;2023-03-26T01:45:38;4.33;;;2.80;;
12556;SDS011;6344;49.932;8.308;2023-03-26T01:48:07;7.70;;;2.97;;
12556;SDS011;6344;49.932;8.308;2023-03-26T01:50:34;10.00;;;2.60;;
12556;SDS011;6344;49.932;8.308;2023-03-26T01:53:01;4.77;;;2.60;;
12556;SDS011;6344;49.932;8.308;2023-03-26T01:55:31;6.03;;;2.80;;
12556;SDS011;6344;49.932;8.308;2023-03-26T01:58:06;7.73;;;3.20;;
12556;SDS011;6344;49.932;8.308;2023-03-26T02:00:43;3.43;;;2.43;;
12556;SDS011;6344;49.932;8.308;2023-03-26T02:03:20;5.10;;;2.77;;
12556;SDS011;6344;49.932;8.308;2023-03-26T02:05:53;7.40;;;2.90;;
12556;SDS011;6344;49.932;8.308;2023-03-26T02:08:24;5.23;;;2.60;;
12556;SDS011;6344;49.932;8.308;2023-03-26T02:11:01;10.37;;;2.93;;
12556;SDS011;6344;49.932;8.308;2023-03-26T02:13:34;13.53;;;4.10;;
12556;SDS011;6344;49.932;8.308;2023-03-26T02:16:02;4.67;;;2.80;;
12556;SDS011;6344;49.932;8.308;2023-03-26T02:18:30;5.50;;;3.13;;
12556;SDS011;6344;49.932;8.308;2023-03-26T02:21:01;6.10;;;2.73;;
12556;SDS011;6344;49.932;8.308;2023-03-26T02:23:29;6.53;;;3.00;;
12556;SDS011;6344;49.932;8.308;2023-03-26T02:26:01;4.90;;;3.67;;
12556;SDS011;6344;49.932;8.308;2023-03-26T02:28:30;8.53;;;2.87;;
12556;SDS011;6344;49.932;8.308;2023-03-26T02:30:56;6.50;;;2.77;;
12556;SDS011;6344;49.932;8.308;2023-03-26T02:33:25;4.70;;;2.53;;
12556;SDS011;6344;49.932;8.308;2023-03-26T02:35:52;9.20;;;3.33;;
12556;SDS011;6344;49.932;8.308;2023-03-26T02:38:19;7.40;;;3.70;;
12556;SDS011;6344;49.932;8.308;2023-03-26T02:40:49;7.53;;;3.50;;
12556;SDS011;6344;49.932;8.308;2023-03-26T02:43:17;5.77;;;3.60;;
12556;SDS011;6344;49.932;8.308;2023-03-26T02:45:43;6.67;;;3.50;;
12556;SDS011;6344;49.932;8.308;2023-03-26T02:48:10;7.87;;;3.60;;
12556;SDS011;6344;49.932;8.308;2023-03-26T02:50:37;4.60;;;3.30;;
12556;SDS011;6344;49.932;8.308;2023-03-26T02:53:04;7.77;;;2.97;;
12556;SDS011;6344;49.932;8.308;2023-03-26T02:55:30;9.03;;;3.00;;
12556;SDS011;6344;49.932;8.308;2023-03-26T02:57:57;6.33;;;2.87;;
12556;SDS011;6344;49.932;8.308;2023-03-26T03:00:25;9.30;;;2.90;;
12556;SDS011;6344;49.932;8.308;2023-03-26T03:02:53;5.70;;;2.90;;
12556;SDS011;6344;49.932;8.308;2023-03-26T03:05:22;9.17;;;3.93;;
12556;SDS011;6344;49.932;8.308;2023-03-26T03:07:50;7.00;;;3.03;;
12556;SDS011;6344;49.932;8.308;2023-03-26T03:10:22;8.20;;;3.13;;
12556;SDS011;6344;49.932;8.308;2023-03-26T03:12:49;9.47;;;3.50;;
12556;SDS011;6344;49.932;8.308;2023-03-26T03:15:16;8.70;;;4.17;;
12556;SDS011;6344;49.932;8.308;2023-03-26T03:17:44;8.23;;;3.47;;
12556;SDS011;6344;49.932;8.308;2023-03-26T03:20:11;3.77;;;2.50;;
12556;SDS011;6344;49.932;8.308;2023-03-26T03:22:38;7.10;;;3.00;;
12556;SDS011;6344;49.932;8.308;2023-03-26T03:25:05;3.57;;;2.90;;
12556;SDS011;6344;49.932;8.308;2023-03-26T03:27:33;6.23;;;2.83;;
12556;SDS011;6344;49.932;8.308;2023-03-26T03:30:03;6.30;;;2.90;;
12556;SDS011;6344;49.932;8.308;2023-03-26T03:32:31;4.93;;;2.57;;
12556;SDS011;6344;49.932;8.308;2023-03-26T03:34:59;4.87;;;2.90;;
12556;SDS011;6344;49.932;8.308;2023-03-26T03:37:25;8.40;;;3.03;;
12556;SDS011;6344;49.932;8.308;2023-03-26T03:39:52;8.07;;;3.40;;
12556;SDS011;6344;49.932;8.308;2023-03-26T03:42:19;5.60;;;3.40;;
12556;SDS011;6344;49.932;8.308;2023-03-26T03:44:45;7.87;;;2.97;;
12556;SDS011;6344;49.932;8.308;2023-03-26T03:47:12;7.30;;;2.73;;
12556;SDS011;6344;49.932;8.308;2023-03-26T03:49:39;8.73;;;3.37;;
12556;SDS011;6344;49.932;8.308;2023-03-26T03:52:07;7.30;;;4.40;;
12556;SDS011;6344;49.932;8.308;2023-03-26T03:54:34;9.20;;;3.67;;
12556;SDS011;6344;49.932;8.308;2023-03-26T03:57:00;10.17;;;3.53;;
12556;SDS011;6344;49.932;8.308;2023-03-26T03:59:27;5.47;;;3.10;;
12556;SDS011;6344;49.932;8.308;2023-03-26T04:01:54;4.70;;;3.10;;
12556;SDS011;6344;49.932;8.308;2023-03-26T04:04:20;8.03;;;3.23;;
12556;SDS011;6344;49.932;8.308;2023-03-26T04:06:49;7.93;;;3.30;;
12556;SDS011;6344;49.932;8.308;2023-03-26T04:09:17;9.30;;;3.27;;
12556;SDS011;6344;49.932;8.308;2023-03-26T04:11:44;14.20;;;3.70;;
12556;SDS011;6344;49.932;8.308;2023-03-26T04:14:11;6.70;;;2.97;;
12556;SDS011;6344;49.932;8.308;2023-03-26T04:16:37;7.13;;;4.27;;
12556;SDS011;6344;49.932;8.308;2023-03-26T04:19:04;8.73;;;2.93;;
12556;SDS011;6344;49.932;8.308;2023-03-26T04:21:30;7.93;;;3.67;;
12556;SDS011;6344;49.932;8.308;2023-03-26T04:24:01;12.10;;;3.60;;
12556;SDS011;6344;49.932;8.308;2023-03-26T04:26:30;8.77;;;4.63;;
12556;SDS011;6344;49.932;8.308;2023-03-26T04:28:57;9.07;;;3.43;;
12556;SDS011;6344;49.932;8.308;2023-03-26T04:31:26;6.73;;;3.00;;
12556;SDS011;6344;49.932;8.308;2023-03-26T04:33:54;7.63;;;3.10;;
12556;SDS011;6344;49.932;8.308;2023-03-26T04:36:26;10.97;;;3.60;;
12556;SDS011;6344;49.932;8.308;2023-03-26T04:38:54;7.47;;;3.10;;
12556;SDS011;6344;49.932;8.308;2023-03-26T04:41:22;6.57;;;3.60;;
12556;SDS011;6344;49.932;8.308;2023-03-26T04:43:51;10.00;;;3.67;;
12556;SDS011;6344;49.932;8.308;2023-03-26T04:46:18;6.10;;;3.27;;
12556;SDS011;6344;49.932;8.308;2023-03-26T04:48:47;7.53;;;3.73;;
12556;SDS011;6344;49.932;8.308;2023-03-26T04:51:14;15.00;;;3.83;;
12556;SDS011;6344;49.932;8.308;2023-03-26T04:53:42;10.13;;;3.90;;
12556;SDS011;6344;49.932;8.308;2023-03-26T04:56:17;7.20;;;4.23;;
12556;SDS011;6344;49.932;8.308;2023-03-26T04:58:56;9.73;;;4.30;;
12556;SDS011;6344;49.932;8.308;2023-03-26T05:01:25;9.73;;;3.77;;
12556;SDS011;6344;49.932;8.308;2023-03-26T05:03:54;8.73;;;4.27;;
12556;SDS011;6344;49.932;8.308;2023-03-26T05:06:22;11.17;;;4.20;;
12556;SDS011;6344;49.932;8.308;2023-03-26T05:08:51;6.70;;;3.60;;
12556;SDS011;6344;49.932;8.308;2023-03-26T05:11:18;5.70;;;4.20;;
12556;SDS011;6344;49.932;8.308;2023-03-26T05:13:45;7.23;;;4.20;;
12556;SDS011;6344;49.932;8.308;2023-03-26T05:16:13;10.60;;;4.07;;
12556;SDS011;6344;49.932;8.308;2023-03-26T05:18:39;7.43;;;3.73;;
12556;SDS011;6344;49.932;8.308;2023-03-26T05:21:06;10.40;;;4.70;;
12556;SDS011;6344;49.932;8.308;2023-03-26T05:23:33;12.20;;;4.50;;
12556;SDS011;6344;49.932;8.308;2023-03-26T05:25:59;8.07;;;3.90;;
12556;SDS011;6344;49.932;8.308;2023-03-26T05:28:26;7.63;;;3.93;;
12556;SDS011;6344;49.932;8.308;2023-03-26T05:30:53;8.47;;;4.30;;
12556;SDS011;6344;49.932;8.308;2023-03-26T05:33:21;9.33;;;4.10;;
12556;SDS011;6344;49.932;8.308;2023-03-26T05:35:57;7.50;;;4.50;;
12556;SDS011;6344;49.932;8.308;2023-03-26T05:38:25;8.07;;;4.50;;
12556;SDS011;6344;49.932;8.308;2023-03-26T05:40:55;12.60;;;4.40;;
12556;SDS011;6344;49.932;8.308;2023-03-26T05:43:23;14.00;;;5.20;;
12556;SDS011;6344;49.932;8.308;2023-03-26T05:45:50;8.80;;;4.43;;
12556;SDS011;6344;49.932;8.308;2023-03-26T05:48:16;7.93;;;4.20;;
12556;SDS011;6344;49.932;8.308;2023-03-26T05:50:44;11.83;;;4.87;;
12556;SDS011;6344;49.932;8.308;2023-03-26T05:53:13;13.23;;;5.80;;
12556;SDS011;6344;49.932;8.308;2023-03-26T05:55:39;13.77;;;5.10;;
12556;SDS011;6344;49.932;8.308;2023-03-26T05:58:09;12.40;;;4.70;;
12556;SDS011;6344;49.932;8.308;2023-03-26T06:00:36;8.97;;;5.10;;
12556;SDS011;6344;49.932;8.308;2023-03-26T06:03:03;7.07;;;4.27;;
12556;SDS011;6344;49.932;8.308;2023-03-26T06:05:30;6.70;;;4.83;;
12556;SDS011;6344;49.932;8.308;2023-03-26T06:07:59;12.43;;;5.80;;
12556;SDS011;6344;49.932;8.308;2023-03-26T06:10:26;7.67;;;3.93;;
12556;SDS011;6344;49.932;8.308;2023-03-26T06:12:53;9.73;;;3.97;;
12556;SDS011;6344;49.932;8.308;2023-03-26T06:15:20;5.40;;;3.60;;
12556;SDS011;6344;49.932;8.308;2023-03-26T06:17:46;8.40;;;4.40;;
12556;SDS011;6344;49.932;8.308;2023-03-26T06:20:13;10.43;;;3.90;;
12556;SDS011;6344;49.932;8.308;2023-03-26T06:22:40;11.70;;;4.00;;
12556;SDS011;6344;49.932;8.308;2023-03-26T06:25:09;9.03;;;4.03;;
12556;SDS011;6344;49.932;8.308;2023-03-26T06:27:35;12.07;;;4.87;;
12556;SDS011;6344;49.932;8.308;2023-03-26T06:30:02;9.63;;;4.13;;
12556;SDS011;6344;49.932;8.308;2023-03-26T06:32:29;9.47;;;4.43;;
12556;SDS011;6344;49.932;8.308;2023-03-26T06:34:56;5.40;;;4.13;;
12556;SDS011;6344;49.932;8.308;2023-03-26T06:37:23;7.10;;;4.03;;
12556;SDS011;6344;49.932;8.308;2023-03-26T06:39:49;13.63;;;4.37;;
12556;SDS011;6344;49.932;8.308;2023-03-26T06:42:18;6.63;;;4.27;;
12556;SDS011;6344;49.932;8.308;2023-03-26T06:44:44;12.37;;;6.53;;
12556;SDS011;6344;49.932;8.308;2023-03-26T06:47:11;9.57;;;5.20;;
12556;SDS011;6344;49.932;8.308;2023-03-26T06:49:37;8.37;;;4.93;;
12556;SDS011;6344;49.932;8.308;2023-03-26T06:52:05;6.80;;;4.43;;
12556;SDS011;6344;49.932;8.308;2023-03-26T06:54:32;5.90;;;4.23;;
12556;SDS011;6344;49.932;8.308;2023-03-26T06:56:59;9.10;;;4.43;;
12556;SDS011;6344;49.932;8.308;2023-03-26T06:59:27;8.30;;;4.60;;
12556;SDS011;6344;49.932;8.308;2023-03-26T07:01:53;7.83;;;5.03;;
12556;SDS011;6344;49.932;8.308;2023-03-26T07:04:20;10.00;;;5.40;;
12556;SDS011;6344;49.932;8.308;2023-03-26T07:06:47;9.97;;;5.37;;
12556;SDS011;6344;49.932;8.308;2023-03-26T07:09:13;9.60;;;5.57;;
12556;SDS011;6344;49.932;8.308;2023-03-26T07:11:40;14.27;;;7.50;;
12556;SDS011;6344;49.932;8.308;2023-03-26T07:14:07;10.40;;;5.97;;
12556;SDS011;6344;49.932;8.308;2023-03-26T07:16:35;13.43;;;7.37;;
12556;SDS011;6344;49.932;8.308;2023-03-26T07:19:01;14.97;;;8.67;;
12556;SDS011;6344;49.932;8.308;2023-03-26T07:21:28;10.67;;;6.50;;
12556;SDS011;6344;49.932;8.308;2023-03-26T07:23:55;9.53;;;5.53;;
12556;SDS011;6344;49.932;8.308;2023-03-26T07:26:24;5.93;;;4.13;;
12556;SDS011;6344;49.932;8.308;2023-03-26T07:28:57;9.23;;;4.77;;
12556;SDS011;6344;49.932;8.308;2023-03-26T07:31:28;7.77;;;4.60;;
12556;SDS011;6344;49.932;8.308;2023-03-26T07:34:02;15.67;;;5.20;;
12556;SDS011;6344;49.932;8.308;2023-03-26T07:36:37;8.13;;;5.00;;
12556;SDS011;6344;49.932;8.308;2023-03-26T07:39:13;9.60;;;3.93;;
12556;SDS011;6344;49.932;8.308;2023-03-26T07:41:52;10.27;;;4.30;;
12556;SDS011;6344;49.932;8.308;2023-03-26T07:44:34;5.63;;;4.60;;
12556;SDS011;6344;49.932;8.308;2023-03-26T07:47:10;11.27;;;5.80;;
12556;SDS011;6344;49.932;8.308;2023-03-26T07:49:51;12.23;;;5.77;;
12556;SDS011;6344;49.932;8.308;2023-03-26T07:52:19;8.03;;;5.40;;
12556;SDS011;6344;49.932;8.308;2023-03-26T07:54:46;10.43;;;4.93;;
12556;SDS011;6344;49.932;8.308;2023-03-26T07:57:15;9.50;;;5.70;;
12556;SDS011;6344;49.932;8.308;2023-03-26T07:59:47;9.27;;;4.67;;
12556;SDS011;6344;49.932;8.308;2023-03-26T08:02:31;8.80;;;5.50;;
12556;SDS011;6344;49.932;8.308;2023-03-26T08:05:09;8.47;;;5.37;;
12556;SDS011;6344;49.932;8.308;2023-03-26T08:10:33;9.10;;;6.00;;
12556;SDS011;6344;49.932;8.308;2023-03-26T08:13:09;14.53;;;7.33;;
12556;SDS011;6344;49.932;8.308;2023-03-26T08:15:48;11.33;;;6.03;;
12556;SDS011;6344;49.932;8.308;2023-03-26T08:18:24;10.47;;;6.07;;
12556;SDS011;6344;49.932;8.308;2023-03-26T08:20:59;6.90;;;5.90;;
12556;SDS011;6344;49.932;8.308;2023-03-26T08:23:31;8.87;;;5.17;;
12556;SDS011;6344;49.932;8.308;2023-03-26T08:26:05;6.67;;;5.90;;
12556;SDS011;6344;49.932;8.308;2023-03-26T08:28:47;7.97;;;5.20;;
12556;SDS011;6344;49.932;8.308;2023-03-26T08:31:26;8.87;;;6.73;;
12556;SDS011;6344;49.932;8.308;2023-03-26T08:33:57;11.80;;;7.50;;
12556;SDS011;6344;49.932;8.308;2023-03-26T08:36:26;16.50;;;7.90;;
12556;SDS011;6344;49.932;8.308;2023-03-26T08:38:53;14.07;;;7.03;;
12556;SDS011;6344;49.932;8.308;2023-03-26T08:41:27;10.17;;;7.13;;
12556;SDS011;6344;49.932;8.308;2023-03-26T08:44:18;11.13;;;6.63;;
12556;SDS011;6344;49.932;8.308;2023-03-26T08:47:25;11.50;;;6.73;;
12556;SDS011;6344;49.932;8.308;2023-03-26T08:50:34;11.27;;;7.37;;
12556;SDS011;6344;49.932;8.308;2023-03-26T08:56:30;11.10;;;6.17;;
12556;SDS011;6344;49.932;8.308;2023-03-26T09:02:21;9.60;;;5.80;;
12556;SDS011;6344;49.932;8.308;2023-03-26T09:05:03;8.97;;;5.67;;
12556;SDS011;6344;49.932;8.308;2023-03-26T09:07:51;11.27;;;6.60;;
12556;SDS011;6344;49.932;8.308;2023-03-26T09:10:51;10.03;;;6.77;;
12556;SDS011;6344;49.932;8.308;2023-03-26T09:16:42;14.83;;;6.00;;
12556;SDS011;6344;49.932;8.308;2023-03-26T09:19:34;7.97;;;5.67;;
12556;SDS011;6344;49.932;8.308;2023-03-26T09:22:34;7.33;;;5.30;;
12556;SDS011;6344;49.932;8.308;2023-03-26T09:28:20;7.27;;;5.70;;
12556;SDS011;6344;49.932;8.308;2023-03-26T09:31:08;7.83;;;5.50;;
12556;SDS011;6344;49.932;8.308;2023-03-26T09:33:53;7.40;;;5.20;;
12556;SDS011;6344;49.932;8.308;2023-03-26T09:36:29;7.43;;;4.87;;
12556;SDS011;6344;49.932;8.308;2023-03-26T09:39:08;3.90;;;3.30;;
12556;SDS011;6344;49.932;8.308;2023-03-26T09:41:41;5.03;;;3.90;;
12556;SDS011;6344;49.932;8.308;2023-03-26T09:44:24;5.53;;;3.80;;
12556;SDS011;6344;49.932;8.308;2023-03-26T09:47:14;4.40;;;4.00;;
12556;SDS011;6344;49.932;8.308;2023-03-26T09:50:13;3.40;;;3.10;;
12556;SDS011;6344;49.932;8.308;2023-03-26T09:52:53;5.63;;;3.87;;
12556;SDS011;6344;49.932;8.308;2023-03-26T09:55:31;6.63;;;4.77;;
12556;SDS011;6344;49.932;8.308;2023-03-26T09:58:10;8.63;;;4.23;;
12556;SDS011;6344;49.932;8.308;2023-03-26T10:01:01;5.37;;;4.17;;
12556;SDS011;6344;49.932;8.308;2023-03-26T10:03:37;8.60;;;5.03;;
12556;SDS011;6344;49.932;8.308;2023-03-26T10:06:25;5.63;;;3.60;;
12556;SDS011;6344;49.932;8.308;2023-03-26T10:09:05;7.07;;;4.30;;
12556;SDS011;6344;49.932;8.308;2023-03-26T10:11:46;8.00;;;4.40;;
12556;SDS011;6344;49.932;8.308;2023-03-26T10:14:25;4.70;;;3.60;;
12556;SDS011;6344;49.932;8.308;2023-03-26T10:17:02;8.90;;;2.73;;
12556;SDS011;6344;49.932;8.308;2023-03-26T10:19:42;5.07;;;2.77;;
12556;SDS011;6344;49.932;8.308;2023-03-26T10:22:23;3.27;;;2.33;;
12556;SDS011;6344;49.932;8.308;2023-03-26T10:25:04;4.53;;;2.57;;
12556;SDS011;6344;49.932;8.308;2023-03-26T10:27:44;4.00;;;2.53;;
12556;SDS011;6344;49.932;8.308;2023-03-26T10:30:28;3.67;;;3.13;;
12556;SDS011;6344;49.932;8.308;2023-03-26T10:33:08;4.10;;;2.10;;
12556;SDS011;6344;49.932;8.308;2023-03-26T10:35:45;3.93;;;2.57;;
12556;SDS011;6344;49.932;8.308;2023-03-26T10:38:21;4.03;;;3.27;;
12556;SDS011;6344;49.932;8.308;2023-03-26T10:40:57;3.20;;;2.43;;
12556;SDS011;6344;49.932;8.308;2023-03-26T10:43:42;5.20;;;2.70;;
12556;SDS011;6344;49.932;8.308;2023-03-26T10:46:23;2.27;;;2.00;;
12556;SDS011;6344;49.932;8.308;2023-03-26T10:49:19;5.10;;;1.87;;
12556;SDS011;6344;49.932;8.308;2023-03-26T10:51:58;3.43;;;3.13;;
12556;SDS011;6344;49.932;8.308;2023-03-26T10:54:32;12.97;;;11.77;;
12556;SDS011;6344;49.932;8.308;2023-03-26T10:57:08;3.80;;;2.20;;
12556;SDS011;6344;49.932;8.308;2023-03-26T10:59:42;4.13;;;2.33;;
12556;SDS011;6344;49.932;8.308;2023-03-26T11:02:19;4.50;;;2.80;;
12556;SDS011;6344;49.932;8.308;2023-03-26T11:04:54;2.37;;;1.90;;
12556;SDS011;6344;49.932;8.308;2023-03-26T11:07:32;1.90;;;1.80;;
12556;SDS011;6344;49.932;8.308;2023-03-26T11:10:06;2.50;;;2.10;;
12556;SDS011;6344;49.932;8.308;2023-03-26T11:12:38;3.20;;;2.17;;
12556;SDS011;6344;49.932;8.308;2023-03-26T11:15:12;2.70;;;1.90;;
12556;SDS011;6344;49.932;8.308;2023-03-26T11:17:49;1.40;;;1.30;;
12556;SDS011;6344;49.932;8.308;2023-03-26T11:20:31;2.23;;;1.50;;
12556;SDS011;6344;49.932;8.308;2023-03-26T11:23:10;2.07;;;1.30;;
12556;SDS011;6344;49.932;8.308;2023-03-26T11:25:53;1.30;;;1.13;;
12556;SDS011;6344;49.932;8.308;2023-03-26T11:28:44;2.03;;;1.83;;
12556;SDS011;6344;49.932;8.308;2023-03-26T11:31:34;2.33;;;2.00;;
12556;SDS011;6344;49.932;8.308;2023-03-26T11:34:10;1.60;;;1.50;;
12556;SDS011;6344;49.932;8.308;2023-03-26T11:36:41;1.63;;;1.40;;
12556;SDS011;6344;49.932;8.308;2023-03-26T11:39:11;1.87;;;1.30;;
12556;SDS011;6344;49.932;8.308;2023-03-26T11:41:42;3.90;;;1.67;;
12556;SDS011;6344;49.932;8.308;2023-03-26T11:44:12;4.13;;;1.47;;
12556;SDS011;6344;49.932;8.308;2023-03-26T11:46:45;3.03;;;2.10;;
12556;SDS011;6344;49.932;8.308;2023-03-26T11:49:15;2.73;;;2.53;;
12556;SDS011;6344;49.932;8.308;2023-03-26T11:51:45;5.83;;;2.10;;
12556;SDS011;6344;49.932;8.308;2023-03-26T11:54:13;2.90;;;1.43;;
12556;SDS011;6344;49.932;8.308;2023-03-26T11:56:41;1.93;;;1.43;;
12556;SDS011;6344;49.932;8.308;2023-03-26T11:59:13;1.40;;;1.20;;
12556;SDS011;6344;49.932;8.308;2023-03-26T12:01:43;1.17;;;1.00;;
12556;SDS011;6344;49.932;8.308;2023-03-26T12:04:16;1.40;;;1.10;;
12556;SDS011;6344;49.932;8.308;2023-03-26T12:06:50;1.20;;;1.10;;
12556;SDS011;6344;49.932;8.308;2023-03-26T12:09:20;1.90;;;1.20;;
12556;SDS011;6344;49.932;8.308;2023-03-26T12:11:48;1.40;;;1.10;;
12556;SDS011;6344;49.932;8.308;2023-03-26T12:14:20;1.30;;;1.20;;
12556;SDS011;6344;49.932;8.308;2023-03-26T12:16:59;2.00;;;1.30;;
12556;SDS011;6344;49.932;8.308;2023-03-26T12:19:33;2.83;;;1.10;;
12556;SDS011;6344;49.932;8.308;2023-03-26T12:22:03;1.20;;;1.00;;
12556;SDS011;6344;49.932;8.308;2023-03-26T12:24:31;1.97;;;1.00;;
12556;SDS011;6344;49.932;8.308;2023-03-26T12:27:00;1.83;;;1.00;;
12556;SDS011;6344;49.932;8.308;2023-03-26T12:29:47;1.10;;;1.00;;
12556;SDS011;6344;49.932;8.308;2023-03-26T12:32:16;2.40;;;1.20;;
12556;SDS011;6344;49.932;8.308;2023-03-26T12:34:43;1.53;;;1.37;;
12556;SDS011;6344;49.932;8.308;2023-03-26T12:40:04;2.33;;;1.30;;
12556;SDS011;6344;49.932;8.308;2023-03-26T12:42:38;1.40;;;1.30;;
12556;SDS011;6344;49.932;8.308;2023-03-26T12:45:05;4.33;;;1.30;;
12556;SDS011;6344;49.932;8.308;2023-03-26T12:47:37;1.50;;;1.00;;
12556;SDS011;6344;49.932;8.308;2023-03-26T12:50:04;1.30;;;1.13;;
12556;SDS011;6344;49.932;8.308;2023-03-26T12:52:41;2.20;;;1.20;;
12556;SDS011;6344;49.932;8.308;2023-03-26T12:55:30;1.10;;;1.00;;
12556;SDS011;6344;49.932;8.308;2023-03-26T12:58:24;2.07;;;1.37;;
12556;SDS011;6344;49.932;8.308;2023-03-26T13:01:16;2.50;;;1.17;;
12556;SDS011;6344;49.932;8.308;2023-03-26T13:04:03;2.17;;;1.03;;
12556;SDS011;6344;49.932;8.308;2023-03-26T13:06:38;1.93;;;1.00;;
12556;SDS011;6344;49.932;8.308;2023-03-26T13:12:05;1.97;;;1.20;;
12556;SDS011;6344;49.932;8.308;2023-03-26T13:17:33;1.33;;;1.23;;
12556;SDS011;6344;49.932;8.308;2023-03-26T13:20:03;2.10;;;1.03;;
12556;SDS011;6344;49.932;8.308;2023-03-26T13:22:38;1.50;;;1.40;;
12556;SDS011;6344;49.932;8.308;2023-03-26T13:25:15;1.13;;;1.00;;
12556;SDS011;6344;49.932;8.308;2023-03-26T13:27:52;1.50;;;1.10;;
12556;SDS011;6344;49.932;8.308;2023-03-26T13:30:30;2.07;;;1.03;;
12556;SDS011;6344;49.932;8.308;2023-03-26T13:33:08;1.77;;;1.00;;
12556;SDS011;6344;49.932;8.308;2023-03-26T13:35:52;1.23;;;1.13;;
12556;SDS011;6344;49.932;8.308;2023-03-26T13:38:24;1.33;;;1.20;;
12556;SDS011;6344;49.932;8.308;2023-03-26T13:41:05;1.50;;;1.13;;
12556;SDS011;6344;49.932;8.308;2023-03-26T13:43:43;2.60;;;1.40;;
12556;SDS011;6344;49.932;8.308;2023-03-26T13:46:23;1.50;;;1.20;;
12556;SDS011;6344;49.932;8.308;2023-03-26T13:48:56;2.47;;;1.10;;
12556;SDS011;6344;49.932;8.308;2023-03-26T13:51:26;1.37;;;1.00;;
12556;SDS011;6344;49.932;8.308;2023-03-26T13:54:00;1.90;;;1.07;;
12556;SDS011;6344;49.932;8.308;2023-03-26T13:56:38;2.50;;;1.30;;
12556;SDS011;6344;49.932;8.308;2023-03-26T13:59:08;1.77;;;1.30;;
12556;SDS011;6344;49.932;8.308;2023-03-26T14:01:44;2.00;;;1.07;;
12556;SDS011;6344;49.932;8.308;2023-03-26T14:04:14;1.90;;;1.10;;
12556;SDS011;6344;49.932;8.308;2023-03-26T14:06:47;3.23;;;1.47;;
12556;SDS011;6344;49.932;8.308;2023-03-26T14:09:22;1.10;;;0.93;;
12556;SDS011;6344;49.932;8.308;2023-03-26T14:11:57;1.77;;;1.57;;
12556;SDS011;6344;49.932;8.308;2023-03-26T14:14:42;2.30;;;1.63;;
12556;SDS011;6344;49.932;8.308;2023-03-26T14:17:16;4.13;;;1.50;;
12556;SDS011;6344;49.932;8.308;2023-03-26T14:19:53;2.30;;;1.30;;
12556;SDS011;6344;49.932;8.308;2023-03-26T14:22:50;3.17;;;1.30;;
12556;SDS011;6344;49.932;8.308;2023-03-26T14:25:41;1.93;;;1.23;;
12556;SDS011;6344;49.932;8.308;2023-03-26T14:28:25;1.87;;;1.23;;
12556;SDS011;6344;49.932;8.308;2023-03-26T14:31:09;2.67;;;1.30;;
12556;SDS011;6344;49.932;8.308;2023-03-26T14:53:11;4.13;;;1.77;;
12556;SDS011;6344;49.932;8.308;2023-03-26T14:55:48;1.40;;;1.13;;
12556;SDS011;6344;49.932;8.308;2023-03-26T14:58:44;4.27;;;1.57;;
12556;SDS011;6344;49.932;8.308;2023-03-26T15:01:37;3.57;;;1.80;;
12556;SDS011;6344;49.932;8.308;2023-03-26T15:07:51;4.83;;;1.60;;
12556;SDS011;6344;49.932;8.308;2023-03-26T15:11:04;2.60;;;1.30;;
12556;SDS011;6344;49.932;8.308;2023-03-26T15:13:55;1.90;;;1.50;;
12556;SDS011;6344;49.932;8.308;2023-03-26T15:29:42;3.87;;;1.53;;
12556;SDS011;6344;49.932;8.308;2023-03-26T15:32:36;2.73;;;1.33;;
12556;SDS011;6344;49.932;8.308;2023-03-26T15:38:31;2.13;;;1.00;;
12556;SDS011;6344;49.932;8.308;2023-03-26T15:41:15;1.80;;;0.90;;
12556;SDS011;6344;49.932;8.308;2023-03-26T15:44:05;2.40;;;0.90;;
12556;SDS011;6344;49.932;8.308;2023-03-26T15:46:50;3.00;;;1.10;;
12556;SDS011;6344;49.932;8.308;2023-03-26T15:49:23;8.23;;;1.20;;
12556;SDS011;6344;49.932;8.308;2023-03-26T15:52:02;2.47;;;1.00;;
12556;SDS011;6344;49.932;8.308;2023-03-26T15:54:35;1.40;;;1.00;;
12556;SDS011;6344;49.932;8.308;2023-03-26T15:57:15;2.17;;;0.90;;
12556;SDS011;6344;49.932;8.308;2023-03-26T15:59:53;1.00;;;0.70;;
12556;SDS011;6344;49.932;8.308;2023-03-26T16:02:38;1.20;;;0.80;;
12556;SDS011;6344;49.932;8.308;2023-03-26T16:05:19;1.10;;;0.80;;
12556;SDS011;6344;49.932;8.308;2023-03-26T16:07:58;3.63;;;0.90;;
12556;SDS011;6344;49.932;8.308;2023-03-26T16:10:34;1.20;;;0.90;;
12556;SDS011;6344;49.932;8.308;2023-03-26T16:16:10;1.20;;;1.00;;
12556;SDS011;6344;49.932;8.308;2023-03-26T16:18:46;1.00;;;0.70;;
12556;SDS011;6344;49.932;8.308;2023-03-26T16:24:20;1.30;;;0.97;;
12556;SDS011;6344;49.932;8.308;2023-03-26T16:27:00;2.83;;;1.10;;
12556;SDS011;6344;49.932;8.308;2023-03-26T16:29:35;2.07;;;1.10;;
12556;SDS011;6344;49.932;8.308;2023-03-26T16:32:34;1.40;;;1.30;;
12556;SDS011;6344;49.932;8.308;2023-03-26T16:35:20;1.40;;;1.00;;
12556;SDS011;6344;49.932;8.308;2023-03-26T16:38:08;1.50;;;1.00;;
12556;SDS011;6344;49.932;8.308;2023-03-26T16:40:48;3.87;;;1.30;;
12556;SDS011;6344;49.932;8.308;2023-03-26T16:43:25;2.37;;;1.30;;
12556;SDS011;6344;49.932;8.308;2023-03-26T16:46:06;1.10;;;0.90;;
12556;SDS011;6344;49.932;8.308;2023-03-26T16:48:44;1.60;;;1.30;;